CheckWX is a tool to help pilots better visualize weather data.  It is not intended as a substitute for an official pre-flight weather briefing.

04:41:48 UTC

KVBG TAF
Vandenberg AFB Airport
Lompoc, California, USA
TAF KVBG 222201Z 2222/2404 34012KT 9999 FEW030 FEW170 BKN300 QNH3018INS BECMG 2303/2304 VRB06KT 9999 SCT030 BKN150 QNH3017INS BECMG 2311/2312 VRB06KT 9999 VCSH BKN020 OVC080 QNH3017INS BECMG 2316/2317 33009KT 8000 -SHRA BKN025 BKN100 QNH3018INS BECMG 2318/2319 33009KT 9999 NSW SCT030 SCT060 BKN120 QNH3018INS BECMG 2321/2322 32012G18KT 9999 FEW050 FEW260 QNH3016INS TX17/2222Z TN08/2313Z

Mar-22@
22:00 UTC

Mar-22 @ 22:00 UTC

Mar-23@
03:00 UTC

Mar-23 @ 03:00 UTC

TAF KVBG 222201Z 2222/2404 34012KT 9999 FEW030 FEW170 BKN300 QNH3018INS

Expired

Wind
  • 340° at 12 KTS
Cloud Levels
  • Few at 3,000' AGL
  • Few at 17,000' AGL
  • Broken at 30,000' AGL

Mar-23@
03:00 UTC

Mar-23 @ 03:00 UTC

Mar-23@
11:00 UTC

Mar-23 @ 11:00 UTC

BECMG 2303/2304 VRB06KT 9999 SCT030 BKN150 QNH3017INS

Becoming

Becoming Conditions expected by Sat, Mar 23, 2019 @ 04:00 UTC

Wind
  • Variable at 6 KTS
Cloud Levels
  • Scattered at 3,000' AGL
  • Broken at 15,000' AGL

Mar-23@
11:00 UTC

Mar-23 @ 11:00 UTC

Mar-23@
16:00 UTC

Mar-23 @ 16:00 UTC

BECMG 2311/2312 VRB06KT 9999 VCSH BKN020 OVC080 QNH3017INS

Becoming

Becoming Conditions expected by Sat, Mar 23, 2019 @ 12:00 UTC

Wind
  • Variable at 6 KTS
Cloud Levels
  • Broken at 2,000' AGL
  • Overcast at 8,000' AGL

Mar-23@
16:00 UTC

Mar-23 @ 16:00 UTC

Mar-23@
18:00 UTC

Mar-23 @ 18:00 UTC

BECMG 2316/2317 33009KT 8000 -SHRA BKN025 BKN100 QNH3018INS

Becoming

Becoming Conditions expected by Sat, Mar 23, 2019 @ 17:00 UTC

Wind
  • 330° at 9 KTS
Conditions
Light Rain
Cloud Levels
  • Broken at 2,500' AGL
  • Broken at 10,000' AGL

Mar-23@
18:00 UTC

Mar-23 @ 18:00 UTC

Mar-23@
21:00 UTC

Mar-23 @ 21:00 UTC

BECMG 2318/2319 33009KT 9999 NSW SCT030 SCT060 BKN120 QNH3018INS

Becoming

Becoming Conditions expected by Sat, Mar 23, 2019 @ 19:00 UTC

Wind
  • 330° at 9 KTS
Conditions
No significant weather
Cloud Levels
  • Scattered at 3,000' AGL
  • Scattered at 6,000' AGL
  • Broken at 12,000' AGL

Mar-23@
21:00 UTC

Mar-23 @ 21:00 UTC

Mar-24@
04:00 UTC

Mar-24 @ 04:00 UTC

BECMG 2321/2322 32012G18KT 9999 FEW050 FEW260 QNH3016INS TX17/2222Z TN08/2313Z

Becoming

Becoming Conditions expected by Sat, Mar 23, 2019 @ 22:00 UTC

Wind
  • 320° at 12 KTS
  • {Gusting to 18 KTS
Conditions
No significant weather
Cloud Levels
  • Few at 5,000' AGL
  • Few at 26,000' AGL